PWSweather.com
Personal Weather Stations
Station Observations
KMICHEBO10
Cordwood Point, Lake Huron, Cheboygan, MI 49721

Cordwood Point, Lake HuronCheboygan, MI 49721

Lat: 45.663372, Lon: -84.3327789

Elevation: 598

Station Type: Davis Vantage Pro2 Wireless

https://www.lakehuronweather.org

High Low Average
Temperature 33.0°F0.6°C 18.5°F-7.5°C 27.9°F-2.3°C
Dew Point 29.4°F-1.4°C 16.0°F-8.9°C 23.2°F-4.9°C
Winds 4.6 mph 7.4 kmh Calm Calm 1.0 mph SSW1.6 kmh SSW
Wind Gusts 9.2 mph14.8 kmh -- 2.0 mph3.2 kmh
Humidity 91% 74% 82%
Pressure 29.88 in1011.9 mb 29.73 in1006.8 mb -
Precipitation 0.01 in0.3 mm - -
Hour Temp Dew Point Humidity Winds Wind Gusts Pressure Precip Precip Rate Daily Precip Total
12:00 AM 25.3°F-3.7°C 19.7°F-6.8°C 79% 1.2 mph SSW1.9 kmh SSW 2.3 mph3.7 kmh 29.88 in1011.9 mb - 0.00 in0.0 mm 0.00 in0.0 mm
12:10 AM 25.3°F-3.7°C 20.0°F-6.7°C 80% 5.8 mph SW9.3 kmh SW 8.1 mph13.0 kmh 29.88 in1011.9 mb - 0.00 in0.0 mm 0.00 in0.0 mm
12:20 AM 26.2°F-3.2°C 20.3°F-6.5°C 78% 4.6 mph SW7.4 kmh SW 9.2 mph14.8 kmh 29.87 in1011.5 mb - 0.00 in0.0 mm 0.00 in0.0 mm
12:30 AM 26.6°F-3.0°C 20.4°F-6.4°C 77% 1.2 mph SW1.9 kmh SW 9.2 mph14.8 kmh 29.87 in1011.5 mb - 0.00 in0.0 mm 0.00 in0.0 mm
12:40 AM 26.9°F-2.8°C 20.3°F-6.5°C 76% 4.6 mph SSW7.4 kmh SSW 8.1 mph13.0 kmh 29.87 in1011.5 mb - 0.00 in0.0 mm 0.00 in0.0 mm
12:50 AM 27.1°F-2.7°C 20.5°F-6.4°C 76% 3.5 mph SW5.6 kmh SW 9.2 mph14.8 kmh 29.87 in1011.5 mb - 0.00 in0.0 mm 0.00 in0.0 mm
01:00 AM 27.1°F-2.7°C 20.8°F-6.2°C 77% 2.3 mph SSW3.7 kmh SSW 3.5 mph5.6 kmh 29.87 in1011.5 mb - 0.00 in0.0 mm 0.00 in0.0 mm
01:10 AM 27.0°F-2.8°C 20.7°F-6.3°C 77% 3.5 mph W5.6 kmh W 6.9 mph11.1 kmh 29.87 in1011.5 mb - 0.00 in0.0 mm 0.00 in0.0 mm
01:20 AM 27.0°F-2.8°C 20.4°F-6.4°C 76% 3.5 mph SW5.6 kmh SW 4.6 mph7.4 kmh 29.87 in1011.5 mb - 0.00 in0.0 mm 0.00 in0.0 mm
01:30 AM 26.9°F-2.8°C 20.4°F-6.4°C 76% 2.3 mph S3.7 kmh S 4.6 mph7.4 kmh 29.86 in1011.2 mb - 0.00 in0.0 mm 0.00 in0.0 mm
01:40 AM 26.8°F-2.9°C 20.2°F-6.6°C 76% 2.3 mph WSW3.7 kmh WSW 3.5 mph5.6 kmh 29.86 in1011.2 mb - 0.00 in0.0 mm 0.00 in0.0 mm
01:50 AM 26.7°F-2.9°C 19.8°F-6.8°C 75% 2.3 mph SSW3.7 kmh SSW 4.6 mph7.4 kmh 29.86 in1011.2 mb - 0.00 in0.0 mm 0.00 in0.0 mm
02:00 AM 26.7°F-2.9°C 19.5°F-6.9°C 74% 2.3 mph WSW3.7 kmh WSW 4.6 mph7.4 kmh 29.86 in1011.2 mb - 0.00 in0.0 mm 0.00 in0.0 mm
02:10 AM 26.7°F-2.9°C 19.5°F-6.9°C 74% 2.3 mph NW3.7 kmh NW 3.5 mph5.6 kmh 29.86 in1011.2 mb - 0.00 in0.0 mm 0.00 in0.0 mm
02:20 AM 26.5°F-3.1°C 19.3°F-7.1°C 74% 2.3 mph SW3.7 kmh SW 2.3 mph3.7 kmh 29.86 in1011.2 mb - 0.00 in0.0 mm 0.00 in0.0 mm
02:30 AM 26.4°F-3.1°C 19.3°F-7.1°C 74% 1.2 mph SSW1.9 kmh SSW 3.5 mph5.6 kmh 29.86 in1011.2 mb - 0.00 in0.0 mm 0.00 in0.0 mm
02:40 AM 26.4°F-3.1°C 19.2°F-7.1°C 74% 3.5 mph SW5.6 kmh SW 6.9 mph11.1 kmh 29.86 in1011.2 mb - 0.00 in0.0 mm 0.00 in0.0 mm
02:50 AM 26.2°F-3.2°C 19.4°F-7.0°C 75% 3.5 mph SW5.6 kmh SW 5.8 mph9.3 kmh 29.86 in1011.2 mb - 0.00 in0.0 mm 0.00 in0.0 mm
03:00 AM 26.1°F-3.3°C 19.3°F-7.1°C 75% 2.3 mph SW3.7 kmh SW 2.3 mph3.7 kmh 29.86 in1011.2 mb - 0.00 in0.0 mm 0.00 in0.0 mm
03:10 AM 26.1°F-3.3°C 19.6°F-6.9°C 76% 2.3 mph SW3.7 kmh SW 6.9 mph11.1 kmh 29.86 in1011.2 mb - 0.00 in0.0 mm 0.00 in0.0 mm
03:20 AM 26.1°F-3.3°C 19.3°F-7.1°C 75% 1.2 mph SW1.9 kmh SW 8.1 mph13.0 kmh 29.86 in1011.2 mb - 0.00 in0.0 mm 0.00 in0.0 mm
03:30 AM 26.0°F-3.3°C 19.5°F-6.9°C 76% 2.3 mph SW3.7 kmh SW 3.5 mph5.6 kmh 29.86 in1011.2 mb - 0.00 in0.0 mm 0.00 in0.0 mm
03:40 AM 25.8°F-3.4°C 19.3°F-7.1°C 76% 1.2 mph SW1.9 kmh SW 9.2 mph14.8 kmh 29.86 in1011.2 mb - 0.00 in0.0 mm 0.00 in0.0 mm
03:50 AM 25.8°F-3.4°C 19.3°F-7.1°C 76% 1.2 mph SSE1.9 kmh SSE 1.2 mph1.9 kmh 29.86 in1011.2 mb - 0.00 in0.0 mm 0.00 in0.0 mm
04:00 AM 25.6°F-3.6°C 19.4°F-7.0°C 77% 1.2 mph SSW1.9 kmh SSW 1.2 mph1.9 kmh 29.86 in1011.2 mb - 0.00 in0.0 mm 0.00 in0.0 mm
04:10 AM 25.3°F-3.7°C 19.4°F-7.0°C 78% 1.2 mph WSW1.9 kmh WSW 2.3 mph3.7 kmh 29.86 in1011.2 mb - 0.00 in0.0 mm 0.00 in0.0 mm
04:20 AM 25.1°F-3.8°C 19.2°F-7.1°C 78% 2.3 mph S3.7 kmh S 3.5 mph5.6 kmh 29.86 in1011.2 mb - 0.00 in0.0 mm 0.00 in0.0 mm
04:30 AM 25.2°F-3.8°C 19.6°F-6.9°C 79% 1.2 mph SSW1.9 kmh SSW 2.3 mph3.7 kmh 29.86 in1011.2 mb - 0.00 in0.0 mm 0.00 in0.0 mm
04:40 AM 24.9°F-3.9°C 19.3°F-7.1°C 79% 2.3 mph SSE3.7 kmh SSE 4.6 mph7.4 kmh 29.86 in1011.2 mb - 0.00 in0.0 mm 0.00 in0.0 mm
04:50 AM 24.8°F-4.0°C 19.5°F-6.9°C 80% 1.2 mph S1.9 kmh S 3.5 mph5.6 kmh 29.86 in1011.2 mb - 0.00 in0.0 mm 0.00 in0.0 mm
05:00 AM 24.5°F-4.2°C 19.2°F-7.1°C 80% 1.2 mph SW1.9 kmh SW 2.3 mph3.7 kmh 29.86 in1011.2 mb - 0.00 in0.0 mm 0.00 in0.0 mm
05:10 AM 24.2°F-4.3°C 19.2°F-7.1°C 81% 1.2 mph SW1.9 kmh SW 2.3 mph3.7 kmh 29.85 in1010.8 mb - 0.00 in0.0 mm 0.00 in0.0 mm
05:20 AM 24.1°F-4.4°C 19.1°F-7.2°C 81% 1.2 mph SW1.9 kmh SW 2.3 mph3.7 kmh 29.86 in1011.2 mb - 0.00 in0.0 mm 0.00 in0.0 mm
05:30 AM 23.8°F-4.6°C 18.8°F-7.3°C 81% 1.2 mph S1.9 kmh S 2.3 mph3.7 kmh 29.86 in1011.2 mb - 0.00 in0.0 mm 0.00 in0.0 mm
05:40 AM 23.6°F-4.7°C 18.9°F-7.3°C 82% 1.2 mph SW1.9 kmh SW 1.2 mph1.9 kmh 29.86 in1011.2 mb - 0.00 in0.0 mm 0.00 in0.0 mm
05:50 AM 23.4°F-4.8°C 18.7°F-7.4°C 82% Calm Calm 1.2 mph1.9 kmh 29.86 in1011.2 mb - 0.00 in0.0 mm 0.00 in0.0 mm
06:00 AM 23.3°F-4.8°C 18.9°F-7.3°C 83% 1.2 mph SW1.9 kmh SW 2.3 mph3.7 kmh 29.86 in1011.2 mb - 0.00 in0.0 mm 0.00 in0.0 mm
06:10 AM 23.1°F-4.9°C 18.7°F-7.4°C 83% Calm Calm 1.2 mph1.9 kmh 29.86 in1011.2 mb - 0.00 in0.0 mm 0.00 in0.0 mm
06:20 AM 22.8°F-5.1°C 18.4°F-7.6°C 83% Calm Calm -- 29.86 in1011.2 mb - 0.00 in0.0 mm 0.00 in0.0 mm
06:30 AM 22.4°F-5.3°C 18.1°F-7.7°C 83% 1.2 mph SE1.9 kmh SE 1.2 mph1.9 kmh 29.86 in1011.2 mb - 0.00 in0.0 mm 0.00 in0.0 mm
06:40 AM 22.0°F-5.6°C 17.9°F-7.8°C 84% 1.2 mph S1.9 kmh S 3.5 mph5.6 kmh 29.86 in1011.2 mb - 0.00 in0.0 mm 0.00 in0.0 mm
06:50 AM 21.5°F-5.8°C 17.4°F-8.1°C 84% Calm Calm -- 29.86 in1011.2 mb - 0.00 in0.0 mm 0.00 in0.0 mm
07:00 AM 21.0°F-6.1°C 17.2°F-8.2°C 85% Calm Calm 2.3 mph3.7 kmh 29.86 in1011.2 mb - 0.00 in0.0 mm 0.00 in0.0 mm
07:10 AM 20.6°F-6.3°C 17.1°F-8.3°C 86% 1.2 mph S1.9 kmh S 1.2 mph1.9 kmh 29.86 in1011.2 mb - 0.00 in0.0 mm 0.00 in0.0 mm
07:20 AM 20.3°F-6.5°C 16.8°F-8.4°C 86% 1.2 mph S1.9 kmh S 1.2 mph1.9 kmh 29.86 in1011.2 mb - 0.00 in0.0 mm 0.00 in0.0 mm
07:30 AM 20.0°F-6.7°C 16.8°F-8.4°C 87% 1.2 mph S1.9 kmh S 1.2 mph1.9 kmh 29.86 in1011.2 mb - 0.00 in0.0 mm 0.00 in0.0 mm
07:40 AM 19.8°F-6.8°C 16.5°F-8.6°C 87% 1.2 mph S1.9 kmh S 2.3 mph3.7 kmh 29.85 in1010.8 mb - 0.00 in0.0 mm 0.00 in0.0 mm
07:50 AM 19.7°F-6.8°C 16.7°F-8.5°C 88% Calm Calm 2.3 mph3.7 kmh 29.86 in1011.2 mb - 0.00 in0.0 mm 0.00 in0.0 mm
08:00 AM 19.5°F-6.9°C 16.5°F-8.6°C 88% Calm Calm 1.2 mph1.9 kmh 29.86 in1011.2 mb - 0.00 in0.0 mm 0.00 in0.0 mm
08:10 AM 19.4°F-7.0°C 16.4°F-8.7°C 88% 1.2 mph SSW1.9 kmh SSW 1.2 mph1.9 kmh 29.86 in1011.2 mb - 0.00 in0.0 mm 0.00 in0.0 mm
08:20 AM 19.1°F-7.2°C 16.1°F-8.8°C 88% 1.2 mph SSW1.9 kmh SSW 2.3 mph3.7 kmh 29.86 in1011.2 mb - 0.00 in0.0 mm 0.00 in0.0 mm
08:30 AM 19.0°F-7.2°C 16.3°F-8.7°C 89% Calm Calm 1.2 mph1.9 kmh 29.86 in1011.2 mb - 0.00 in0.0 mm 0.00 in0.0 mm
08:40 AM 18.9°F-7.3°C 16.2°F-8.8°C 89% Calm Calm 1.2 mph1.9 kmh 29.86 in1011.2 mb - 0.00 in0.0 mm 0.00 in0.0 mm
08:50 AM 18.8°F-7.3°C 16.1°F-8.8°C 89% 1.2 mph SSW1.9 kmh SSW 1.2 mph1.9 kmh 29.86 in1011.2 mb - 0.00 in0.0 mm 0.00 in0.0 mm
09:00 AM 18.8°F-7.3°C 16.1°F-8.8°C 89% Calm Calm 1.2 mph1.9 kmh 29.86 in1011.2 mb - 0.00 in0.0 mm 0.00 in0.0 mm
09:10 AM 18.7°F-7.4°C 16.3°F-8.7°C 90% Calm Calm 1.2 mph1.9 kmh 29.86 in1011.2 mb - 0.00 in0.0 mm 0.00 in0.0 mm
09:20 AM 18.7°F-7.4°C 16.0°F-8.9°C 89% 1.2 mph SSW1.9 kmh SSW 2.3 mph3.7 kmh 29.85 in1010.8 mb - 0.00 in0.0 mm 0.00 in0.0 mm
09:30 AM 18.5°F-7.5°C 16.1°F-8.8°C 90% Calm Calm 3.5 mph5.6 kmh 29.86 in1011.2 mb - 0.00 in0.0 mm 0.00 in0.0 mm
09:40 AM 18.5°F-7.5°C 16.1°F-8.8°C 90% 1.2 mph SSW1.9 kmh SSW 2.3 mph3.7 kmh 29.86 in1011.2 mb - 0.00 in0.0 mm 0.00 in0.0 mm
09:50 AM 18.5°F-7.5°C 16.1°F-8.8°C 90% 1.2 mph SSW1.9 kmh SSW 2.3 mph3.7 kmh 29.86 in1011.2 mb - 0.00 in0.0 mm 0.00 in0.0 mm
10:00 AM 18.6°F-7.4°C 16.2°F-8.8°C 90% 1.2 mph SSW1.9 kmh SSW 1.2 mph1.9 kmh 29.86 in1011.2 mb - 0.00 in0.0 mm 0.00 in0.0 mm
10:10 AM 18.9°F-7.3°C 16.5°F-8.6°C 90% 1.2 mph SSW1.9 kmh SSW 2.3 mph3.7 kmh 29.85 in1010.8 mb - 0.00 in0.0 mm 0.00 in0.0 mm
10:20 AM 19.3°F-7.1°C 16.9°F-8.4°C 90% 1.2 mph SSW1.9 kmh SSW 2.3 mph3.7 kmh 29.86 in1011.2 mb - 0.00 in0.0 mm 0.00 in0.0 mm
10:30 AM 19.9°F-6.7°C 17.5°F-8.1°C 90% Calm Calm 1.2 mph1.9 kmh 29.86 in1011.2 mb - 0.00 in0.0 mm 0.00 in0.0 mm
10:40 AM 20.9°F-6.2°C 18.7°F-7.4°C 91% 1.2 mph SSW1.9 kmh SSW 1.2 mph1.9 kmh 29.86 in1011.2 mb - 0.00 in0.0 mm 0.00 in0.0 mm
10:50 AM 22.0°F-5.6°C 19.5°F-6.9°C 90% Calm Calm 1.2 mph1.9 kmh 29.86 in1011.2 mb - 0.00 in0.0 mm 0.00 in0.0 mm
11:00 AM 23.1°F-4.9°C 20.4°F-6.4°C 89% Calm Calm 1.2 mph1.9 kmh 29.87 in1011.5 mb - 0.00 in0.0 mm 0.00 in0.0 mm
11:10 AM 24.0°F-4.4°C 21.0°F-6.1°C 88% Calm Calm -- 29.87 in1011.5 mb - 0.00 in0.0 mm 0.00 in0.0 mm
11:20 AM 25.0°F-3.9°C 21.7°F-5.7°C 87% Calm Calm 1.2 mph1.9 kmh 29.87 in1011.5 mb - 0.00 in0.0 mm 0.00 in0.0 mm
11:30 AM 26.0°F-3.3°C 22.4°F-5.3°C 86% Calm Calm -- 29.87 in1011.5 mb - 0.00 in0.0 mm 0.00 in0.0 mm
11:40 AM 27.0°F-2.8°C 23.1°F-4.9°C 85% Calm Calm 1.2 mph1.9 kmh 29.88 in1011.9 mb - 0.00 in0.0 mm 0.00 in0.0 mm
11:50 AM 27.8°F-2.3°C 23.6°F-4.7°C 84% Calm Calm 1.2 mph1.9 kmh 29.88 in1011.9 mb - 0.00 in0.0 mm 0.00 in0.0 mm
12:00 PM 28.5°F-1.9°C 23.7°F-4.6°C 82% 1.2 mph SSW1.9 kmh SSW 2.3 mph3.7 kmh 29.87 in1011.5 mb - 0.00 in0.0 mm 0.00 in0.0 mm
12:10 PM 29.2°F-1.6°C 24.1°F-4.4°C 81% 1.2 mph SW1.9 kmh SW 1.2 mph1.9 kmh 29.87 in1011.5 mb - 0.00 in0.0 mm 0.00 in0.0 mm
12:20 PM 29.8°F-1.2°C 24.4°F-4.2°C 80% Calm Calm 1.2 mph1.9 kmh 29.87 in1011.5 mb - 0.00 in0.0 mm 0.00 in0.0 mm
12:30 PM 30.1°F-1.1°C 24.4°F-4.2°C 79% Calm Calm 2.3 mph3.7 kmh 29.88 in1011.9 mb - 0.00 in0.0 mm 0.00 in0.0 mm
12:40 PM 30.6°F-0.8°C 25.1°F-3.8°C 80% Calm Calm 1.2 mph1.9 kmh 29.87 in1011.5 mb - 0.00 in0.0 mm 0.00 in0.0 mm
12:50 PM 31.0°F-0.6°C 25.6°F-3.6°C 80% Calm Calm 1.2 mph1.9 kmh 29.87 in1011.5 mb - 0.00 in0.0 mm 0.00 in0.0 mm
01:00 PM 31.3°F-0.4°C 25.9°F-3.4°C 80% 1.2 mph S1.9 kmh S 4.6 mph7.4 kmh 29.86 in1011.2 mb - 0.00 in0.0 mm 0.00 in0.0 mm
01:10 PM 31.7°F-0.2°C 26.2°F-3.2°C 80% 1.2 mph S1.9 kmh S 3.5 mph5.6 kmh 29.84 in1010.5 mb - 0.00 in0.0 mm 0.00 in0.0 mm
01:20 PM 32.1°F0.1°C 26.6°F-3.0°C 80% 3.5 mph S5.6 kmh S 3.5 mph5.6 kmh 29.84 in1010.5 mb - 0.00 in0.0 mm 0.00 in0.0 mm
01:30 PM 32.2°F0.1°C 26.4°F-3.1°C 79% 1.2 mph SSE1.9 kmh SSE 4.6 mph7.4 kmh 29.84 in1010.5 mb - 0.00 in0.0 mm 0.00 in0.0 mm
01:40 PM 32.3°F0.2°C 26.5°F-3.1°C 79% 2.3 mph SSW3.7 kmh SSW 2.3 mph3.7 kmh 29.83 in1010.2 mb - 0.00 in0.0 mm 0.00 in0.0 mm
01:50 PM 32.3°F0.2°C 26.5°F-3.1°C 79% 1.2 mph SW1.9 kmh SW 3.5 mph5.6 kmh 29.83 in1010.2 mb - 0.00 in0.0 mm 0.00 in0.0 mm
02:00 PM 32.5°F0.3°C 27.0°F-2.8°C 80% 1.2 mph S1.9 kmh S 2.3 mph3.7 kmh 29.83 in1010.2 mb - 0.00 in0.0 mm 0.00 in0.0 mm
02:10 PM 32.8°F0.4°C 27.0°F-2.8°C 79% 1.2 mph SSW1.9 kmh SSW 3.5 mph5.6 kmh 29.82 in1009.8 mb - 0.00 in0.0 mm 0.00 in0.0 mm
02:20 PM 32.6°F0.3°C 26.8°F-2.9°C 79% 2.3 mph S3.7 kmh S 3.5 mph5.6 kmh 29.81 in1009.5 mb - 0.00 in0.0 mm 0.00 in0.0 mm
02:30 PM 32.5°F0.3°C 27.0°F-2.8°C 80% 1.2 mph SSW1.9 kmh SSW 4.6 mph7.4 kmh 29.81 in1009.5 mb - 0.00 in0.0 mm 0.00 in0.0 mm
02:40 PM 32.5°F0.3°C 27.0°F-2.8°C 80% 1.2 mph S1.9 kmh S 2.3 mph3.7 kmh 29.81 in1009.5 mb - 0.00 in0.0 mm 0.00 in0.0 mm
02:50 PM 32.3°F0.2°C 26.8°F-2.9°C 80% 4.6 mph SW7.4 kmh SW 4.6 mph7.4 kmh 29.80 in1009.1 mb - 0.00 in0.0 mm 0.00 in0.0 mm
03:00 PM 32.3°F0.2°C 26.8°F-2.9°C 80% 1.2 mph S1.9 kmh S 5.8 mph9.3 kmh 29.80 in1009.1 mb - 0.00 in0.0 mm 0.00 in0.0 mm
03:10 PM 32.3°F0.2°C 26.5°F-3.1°C 79% 3.5 mph SSW5.6 kmh SSW 4.6 mph7.4 kmh 29.79 in1008.8 mb - 0.00 in0.0 mm 0.00 in0.0 mm
03:20 PM 32.3°F0.2°C 26.5°F-3.1°C 79% 2.3 mph SSW3.7 kmh SSW 3.5 mph5.6 kmh 29.80 in1009.1 mb - 0.00 in0.0 mm 0.00 in0.0 mm
03:30 PM 32.4°F0.2°C 26.6°F-3.0°C 79% 2.3 mph SW3.7 kmh SW 5.8 mph9.3 kmh 29.79 in1008.8 mb - 0.00 in0.0 mm 0.00 in0.0 mm
03:40 PM 32.5°F0.3°C 26.4°F-3.1°C 78% 2.3 mph SW3.7 kmh SW 3.5 mph5.6 kmh 29.79 in1008.8 mb - 0.00 in0.0 mm 0.00 in0.0 mm
03:50 PM 32.6°F0.3°C 26.5°F-3.1°C 78% 3.5 mph SSW5.6 kmh SSW 3.5 mph5.6 kmh 29.79 in1008.8 mb - 0.00 in0.0 mm 0.00 in0.0 mm
04:00 PM 32.9°F0.5°C 26.8°F-2.9°C 78% 1.2 mph SW1.9 kmh SW 6.9 mph11.1 kmh 29.79 in1008.8 mb - 0.00 in0.0 mm 0.00 in0.0 mm
04:10 PM 33.0°F0.6°C 26.6°F-3.0°C 77% Calm Calm 1.2 mph1.9 kmh 29.78 in1008.5 mb - 0.00 in0.0 mm 0.00 in0.0 mm
04:20 PM 32.9°F0.5°C 26.8°F-2.9°C 78% 1.2 mph S1.9 kmh S 3.5 mph5.6 kmh 29.77 in1008.1 mb - 0.00 in0.0 mm 0.00 in0.0 mm
04:30 PM 32.7°F0.4°C 26.6°F-3.0°C 78% 1.2 mph SSE1.9 kmh SSE 3.5 mph5.6 kmh 29.76 in1007.8 mb - 0.00 in0.0 mm 0.00 in0.0 mm
04:40 PM 32.6°F0.3°C 26.5°F-3.1°C 78% 4.6 mph SSE7.4 kmh SSE 5.8 mph9.3 kmh 29.73 in1006.8 mb - 0.00 in0.0 mm 0.00 in0.0 mm
04:50 PM 32.6°F0.3°C 26.5°F-3.1°C 78% 1.2 mph SE1.9 kmh SE 1.2 mph1.9 kmh 29.73 in1006.8 mb - 0.00 in0.0 mm 0.00 in0.0 mm
05:00 PM 32.7°F0.4°C 26.6°F-3.0°C 78% 3.5 mph S5.6 kmh S 3.5 mph5.6 kmh 29.73 in1006.8 mb - 0.00 in0.0 mm 0.00 in0.0 mm
05:10 PM 32.8°F0.4°C 26.4°F-3.1°C 77% Calm Calm 2.3 mph3.7 kmh 29.74 in1007.1 mb - 0.00 in0.0 mm 0.00 in0.0 mm
05:20 PM 32.8°F0.4°C 26.7°F-2.9°C 78% Calm Calm -- 29.73 in1006.8 mb - 0.00 in0.0 mm 0.00 in0.0 mm
05:30 PM 32.8°F0.4°C 26.7°F-2.9°C 78% Calm Calm -- 29.74 in1007.1 mb - 0.01 in0.3 mm 0.01 in0.3 mm
05:40 PM 32.7°F0.4°C 26.6°F-3.0°C 78% Calm Calm -- 29.74 in1007.1 mb - 0.00 in0.0 mm 0.01 in0.3 mm
05:50 PM 32.5°F0.3°C 26.7°F-2.9°C 79% Calm Calm -- 29.74 in1007.1 mb - 0.00 in0.0 mm 0.01 in0.3 mm
06:00 PM 32.1°F0.1°C 26.6°F-3.0°C 80% Calm Calm -- 29.75 in1007.5 mb - 0.00 in0.0 mm 0.01 in0.3 mm
06:10 PM 31.7°F-0.2°C 26.2°F-3.2°C 80% Calm Calm -- 29.75 in1007.5 mb - 0.00 in0.0 mm 0.01 in0.3 mm
06:20 PM 31.4°F-0.3°C 26.3°F-3.2°C 81% Calm Calm -- 29.75 in1007.5 mb - 0.00 in0.0 mm 0.01 in0.3 mm
06:30 PM 31.2°F-0.4°C 26.3°F-3.2°C 82% Calm Calm -- 29.75 in1007.5 mb - 0.00 in0.0 mm 0.01 in0.3 mm
06:40 PM 31.0°F-0.6°C 26.4°F-3.1°C 83% Calm Calm -- 29.75 in1007.5 mb - 0.00 in0.0 mm 0.01 in0.3 mm
06:50 PM 30.8°F-0.7°C 26.5°F-3.1°C 84% Calm Calm -- 29.75 in1007.5 mb - 0.00 in0.0 mm 0.01 in0.3 mm
07:00 PM 30.7°F-0.7°C 26.4°F-3.1°C 84% Calm Calm -- 29.76 in1007.8 mb - 0.00 in0.0 mm 0.01 in0.3 mm
07:10 PM 30.7°F-0.7°C 26.4°F-3.1°C 84% Calm Calm -- 29.76 in1007.8 mb - 0.00 in0.0 mm 0.01 in0.3 mm
07:20 PM 30.6°F-0.8°C 26.3°F-3.2°C 84% Calm Calm -- 29.76 in1007.8 mb - 0.00 in0.0 mm 0.01 in0.3 mm
07:30 PM 30.6°F-0.8°C 26.7°F-2.9°C 85% Calm Calm 1.2 mph1.9 kmh 29.76 in1007.8 mb - 0.00 in0.0 mm 0.01 in0.3 mm
07:40 PM 30.8°F-0.7°C 26.8°F-2.9°C 85% Calm Calm -- 29.77 in1008.1 mb - 0.00 in0.0 mm 0.01 in0.3 mm
07:50 PM 30.8°F-0.7°C 26.8°F-2.9°C 85% 1.2 mph S1.9 kmh S 2.3 mph3.7 kmh 29.77 in1008.1 mb - 0.00 in0.0 mm 0.01 in0.3 mm
08:00 PM 31.1°F-0.5°C 27.1°F-2.7°C 85% Calm Calm 2.3 mph3.7 kmh 29.78 in1008.5 mb - 0.00 in0.0 mm 0.01 in0.3 mm
08:10 PM 31.6°F-0.2°C 27.9°F-2.3°C 86% 1.2 mph WSW1.9 kmh WSW 2.3 mph3.7 kmh 29.77 in1008.1 mb - 0.00 in0.0 mm 0.01 in0.3 mm
08:20 PM 31.9°F-0.1°C 28.5°F-1.9°C 87% 1.2 mph WSW1.9 kmh WSW 2.3 mph3.7 kmh 29.77 in1008.1 mb - 0.00 in0.0 mm 0.01 in0.3 mm
08:30 PM 32.3°F0.2°C 29.1°F-1.6°C 88% 1.2 mph SW1.9 kmh SW 2.3 mph3.7 kmh 29.77 in1008.1 mb - 0.00 in0.0 mm 0.01 in0.3 mm
08:40 PM 32.4°F0.2°C 29.2°F-1.6°C 88% 1.2 mph SSW1.9 kmh SSW 5.8 mph9.3 kmh 29.77 in1008.1 mb - 0.00 in0.0 mm 0.01 in0.3 mm
08:50 PM 32.6°F0.3°C 29.4°F-1.4°C 88% 2.3 mph WSW3.7 kmh WSW 8.1 mph13.0 kmh 29.77 in1008.1 mb - 0.00 in0.0 mm 0.01 in0.3 mm
09:00 PM 32.8°F0.4°C 29.3°F-1.5°C 87% 1.2 mph SW1.9 kmh SW 2.3 mph3.7 kmh 29.77 in1008.1 mb - 0.00 in0.0 mm 0.01 in0.3 mm
09:10 PM 32.7°F0.4°C 28.7°F-1.8°C 85% Calm Calm 3.5 mph5.6 kmh 29.77 in1008.1 mb - 0.00 in0.0 mm 0.01 in0.3 mm
09:20 PM 32.6°F0.3°C 28.6°F-1.9°C 85% 1.2 mph WSW1.9 kmh WSW 4.6 mph7.4 kmh 29.77 in1008.1 mb - 0.00 in0.0 mm 0.01 in0.3 mm
09:30 PM 32.5°F0.3°C 28.2°F-2.1°C 84% 1.2 mph WSW1.9 kmh WSW 2.3 mph3.7 kmh 29.77 in1008.1 mb - 0.00 in0.0 mm 0.01 in0.3 mm
09:40 PM 32.5°F0.3°C 27.9°F-2.3°C 83% 1.2 mph WSW1.9 kmh WSW 6.9 mph11.1 kmh 29.77 in1008.1 mb - 0.00 in0.0 mm 0.01 in0.3 mm
09:50 PM 32.4°F0.2°C 27.8°F-2.3°C 83% Calm Calm -- 29.76 in1007.8 mb - 0.00 in0.0 mm 0.01 in0.3 mm
10:00 PM 32.3°F0.2°C 27.7°F-2.4°C 83% 1.2 mph WSW1.9 kmh WSW 3.5 mph5.6 kmh 29.77 in1008.1 mb - 0.00 in0.0 mm 0.01 in0.3 mm
10:10 PM 32.2°F0.1°C 27.9°F-2.3°C 84% 1.2 mph SW1.9 kmh SW 1.2 mph1.9 kmh 29.77 in1008.1 mb - 0.00 in0.0 mm 0.01 in0.3 mm
10:20 PM 32.2°F0.1°C 27.9°F-2.3°C 84% Calm Calm 1.2 mph1.9 kmh 29.76 in1007.8 mb - 0.00 in0.0 mm 0.01 in0.3 mm
10:30 PM 32.1°F0.1°C 28.1°F-2.2°C 85% 1.2 mph SW1.9 kmh SW 2.3 mph3.7 kmh 29.76 in1007.8 mb - 0.00 in0.0 mm 0.01 in0.3 mm
10:40 PM 32.0°F0.0°C 27.7°F-2.4°C 84% Calm Calm 2.3 mph3.7 kmh 29.76 in1007.8 mb - 0.00 in0.0 mm 0.01 in0.3 mm
10:50 PM 32.0°F0.0°C 27.7°F-2.4°C 84% Calm Calm 1.2 mph1.9 kmh 29.76 in1007.8 mb - 0.00 in0.0 mm 0.01 in0.3 mm
11:00 PM 32.0°F0.0°C 27.7°F-2.4°C 84% 1.2 mph SW1.9 kmh SW 3.5 mph5.6 kmh 29.76 in1007.8 mb - 0.00 in0.0 mm 0.01 in0.3 mm
11:10 PM 31.9°F-0.1°C 27.6°F-2.4°C 84% Calm Calm -- 29.76 in1007.8 mb - 0.00 in0.0 mm 0.01 in0.3 mm
11:20 PM 31.7°F-0.2°C 27.4°F-2.6°C 84% 1.2 mph SW1.9 kmh SW 1.2 mph1.9 kmh 29.76 in1007.8 mb - 0.00 in0.0 mm 0.01 in0.3 mm
11:30 PM 31.6°F-0.2°C 27.6°F-2.4°C 85% Calm Calm -- 29.76 in1007.8 mb - 0.00 in0.0 mm 0.01 in0.3 mm
11:40 PM 31.5°F-0.3°C 27.5°F-2.5°C 85% Calm Calm -- 29.77 in1008.1 mb - 0.00 in0.0 mm 0.01 in0.3 mm
11:50 PM 31.4°F-0.3°C 27.7°F-2.4°C 86% Calm Calm 3.5 mph5.6 kmh 29.76 in1007.8 mb - 0.00 in0.0 mm 0.01 in0.3 mm